MMZO

Playa De Oro International Airport

Airport
ICAO code
MMZO
IATA Code
ZLO
Summary
ICAO Region
CARSAM
ICAO Territory
Location

Manzanillo, Colima, Mexico, Colima

Serving
Manzanillo
Elevation
30 ft
Coordinates
19° 8' 41" N , 104° 33' 31" W
KCC
Airport BS
Bird Strike
Metar
MMZO 222340Z 28018KT 10SM BKN180 28/23 A2977 RMK 8/006 FU NE

Playa de Oro International Airport is approximately 20 nm west north west of Manzanillo, Mexico. It services the city and the surrounding tourist destinations.

Climatology

Tropical Savanna climate (Köppen climate classification Aw)

Runways

Designator Length Width Surface Rops
10/28 2200 45 ASP Yes/Yes

Airport map

Aerial View

SKYbrary Partners:

Safety knowledge contributed by: